This demonstration page uses our WeatherBlox Daily Observations layout. Learn more.

Left ArrowRight Arrow

39.92423, -83.80882

Hourly Observations for September 27, 2020

Temp ( °F °C ) Dew Point ( °F °C ) Humidity (%) Winds ( mph kmh ) Pressure ( in mb ) Visibility ( mi km ) Precip ( " mm )
12:56 am 00:56 Clear 63 17.2 63 17.2 100 100 SSW 6 9 29.91 1013 10 16.0934 0 0
1:56 am 01:56 Clear 62 16.7 62 16.7 100 100 SSW 6 9 29.9 1013 10 16.0934 0 0
2:56 am 02:56 Clear 62 16.7 62 16.7 100 100 SSW 7 11 29.9 1013 10 16.0934 0 0
3:56 am 03:56 Clear 61 16.1 61 16.1 100 100 SSW 5 7 29.9 1012 10 16.0934 0 0
4:56 am 04:56 Clear 61 16.1 61 16.1 100 100 SSW 6 9 29.89 1012 10 16.0934 0 0
5:56 am 05:56 Clear 61 16.1 61 16.1 100 100 SSW 7 11 29.89 1012 10 16.0934 0 0
6:56 am 06:56 Mostly Clear 60 15.6 60 15.6 100 100 SSW 8 13 29.9 1013 10 16.0934 0 0
7:56 am 07:56 Sunny 60 15.6 60 15.6 100 100 SSW 7 11 29.91 1013 10 16.0934 0 0
8:56 am 08:56 Sunny 63 17.2 63 17.2 100 100 SSW 8 13 29.9 1013 10 16.0934 0 0
9:56 am 09:56 Sunny 66 18.9 63 17.2 90 90 SSW 10 17 29.91 1013 10 16.0934 0 0
10:43 am 10:43 Mostly Cloudy 70 21 63 17 78 78 SW 13 20 29.88 1012 10 16.0934 0 0
10:56 am 10:56 Cloudy 70 21.1 63 17.2 79 79 SW 12 19 29.89 1012 10 16.0934 0 0
11:56 am 11:56 Cloudy 72 22.2 63 17.2 73 73 SSW 10 17 29.88 1012 10 16.0934 0 0
12:56 pm 12:56 Cloudy 73 22.8 62 16.7 69 69 SW 9 15 29.87 1012 10 16.0934 0 0
1:15 pm 13:15 Cloudy 73 23 61 16 65 65 SW 13 20 29.84 1011 10 16.0934 0 0
1:56 pm 13:56 Partly Cloudy 75 23.9 63 17.2 66 66 SSW 12 19 29.85 1011 10 16.0934 0 0
2:22 pm 14:22 Mostly Cloudy 75 24 63 17 65 65 SSW 9 15 29.82 1010 10 16.0934 0 0
2:56 pm 14:56 Mostly Sunny 76 24.4 61 16.1 60 60 S 12 19 29.83 1010 10 16.0934 0 0
3:56 pm 15:56 Sunny 77 25 60 15.6 56 56 S 10 17 29.81 1009 10 16.0934 0 0
4:56 pm 16:56 Sunny 77 25 60 15.6 56 56 SSW 8 13 29.8 1009 10 16.0934 0 0
5:56 pm 17:56 Sunny 76 24.4 60 15.6 58 58 S 6 9 29.8 1009 10 16.0934 0 0
6:56 pm 18:56 Sunny 72 22.2 60 15.6 66 66 S 5 7 29.81 1009 10 16.0934 0 0
7:56 pm 19:56 Clear 68 20 60 15.6 76 76 S 3 6 29.81 1010 10 16.0934 0 0
8:56 pm 20:56 Mostly Cloudy 65 18.3 61 16.1 87 87 WSW 3 6 29.83 1010 10 16.0934 0 0
9:56 pm 21:56 Partly Cloudy 64 17.8 62 16.7 93 93 S 6 9 29.82 1010 10 16.0934 0 0
10:56 pm 22:56 Clear 64 17.8 62 16.7 93 93 S 7 11 29.8 1009 10 16.0934 0 0
11:56 pm 23:56 Mostly Clear 62 16.7 62 16.7 100 100 S 5 7 29.8 1009 10 16.0934 0 0

Powered by AerisWeather